PWSweather.com
Personal Weather Stations
Station Observations
LOBIOS
Galicia, LobiosES

GaliciaLobiosES

Lat: 41.895, Lon: -8.091667

Elevation: 1597

Station Type: Automática/Davis Vantage Pro2 Plus

www.meteolobios.es

High Low Average
Temperature 52.3°F11.3°F 39.3°F4.1°F 47.4°F8.6°F
Dew Point 49.3°F9.6°F 36.3°F2.4°F 43.3°F6.3°F
Winds 15.0 mph ENE24.1 mph ENE Calm Calm 5.1 mph 8.2 mph
Wind Gusts 19.6 mph31.5 mph -- 6.9 mph11.1 mph
Humidity 96% 70% 86%
Pressure 30.49 in1032.50 in 30.39 in1029.10 in -
Precipitation 0.03 in0.80 in - -
Hour Temp Dew Point Humidity Winds Wind Gusts Pressure Precip Precip Rate Daily Precip Total
12:00 AM 50.3°F10.2°C 49.2°F9.6°C 96% 3.5 mph W5.6 kmh W 5.8 mph9.3 kmh 30.45 in1031.2 mb - 0.00 in0.0 mm 0.00 in0.0 mm
12:10 AM 50.3°F10.2°C 49.2°F9.6°C 96% 4.6 mph WSW7.4 kmh WSW 5.8 mph9.3 kmh 30.45 in1031.2 mb - 0.00 in0.0 mm 0.00 in0.0 mm
12:20 AM 50.4°F10.2°C 49.3°F9.6°C 96% 3.5 mph W5.6 kmh W 8.1 mph13.0 kmh 30.45 in1031.2 mb - 0.00 in0.0 mm 0.00 in0.0 mm
12:30 AM 50.4°F10.2°C 49.3°F9.6°C 96% Calm Calm 2.3 mph3.7 kmh 30.45 in1031.2 mb - 0.00 in0.0 mm 0.00 in0.0 mm
12:40 AM 50.3°F10.2°C 49.2°F9.6°C 96% 1.1 mph WSW1.8 kmh WSW 3.5 mph5.6 kmh 30.44 in1030.8 mb - 0.00 in0.0 mm 0.00 in0.0 mm
12:50 AM 50.2°F10.1°C 49.1°F9.5°C 96% 3.5 mph SW5.6 kmh SW 5.8 mph9.3 kmh 30.44 in1030.8 mb - 0.00 in0.0 mm 0.00 in0.0 mm
01:00 AM 50.1°F10.1°C 49.0°F9.4°C 96% 2.3 mph WSW3.7 kmh WSW 3.5 mph5.6 kmh 30.44 in1030.8 mb - 0.00 in0.0 mm 0.00 in0.0 mm
01:10 AM 50.1°F10.1°C 49.0°F9.4°C 96% 1.1 mph SW1.8 kmh SW 3.5 mph5.6 kmh 30.43 in1030.5 mb - 0.00 in0.0 mm 0.00 in0.0 mm
01:20 AM 50.0°F10.0°C 48.9°F9.4°C 96% 2.3 mph SW3.7 kmh SW 3.5 mph5.6 kmh 30.43 in1030.5 mb - 0.00 in0.0 mm 0.00 in0.0 mm
01:30 AM 50.0°F10.0°C 48.9°F9.4°C 96% 3.5 mph SW5.6 kmh SW 4.6 mph7.4 kmh 30.44 in1030.8 mb - 0.00 in0.0 mm 0.00 in0.0 mm
01:40 AM 50.0°F10.0°C 48.9°F9.4°C 96% 4.6 mph SW7.4 kmh SW 6.9 mph11.1 kmh 30.44 in1030.8 mb - 0.00 in0.0 mm 0.00 in0.0 mm
01:50 AM 50.0°F10.0°C 48.9°F9.4°C 96% 5.8 mph SW9.3 kmh SW 9.2 mph14.8 kmh 30.43 in1030.5 mb - 0.00 in0.0 mm 0.00 in0.0 mm
02:00 AM 50.0°F10.0°C 48.9°F9.4°C 96% 3.5 mph SW5.6 kmh SW 4.6 mph7.4 kmh 30.43 in1030.5 mb - 0.01 in0.3 mm 0.01 in0.3 mm
02:10 AM 49.8°F9.9°C 48.7°F9.3°C 96% 4.6 mph SW7.4 kmh SW 4.6 mph7.4 kmh 30.43 in1030.5 mb - 0.00 in0.0 mm 0.01 in0.3 mm
02:20 AM 49.6°F9.8°C 48.5°F9.2°C 96% Calm Calm -- 30.43 in1030.5 mb - 0.00 in0.0 mm 0.01 in0.3 mm
02:30 AM 49.4°F9.7°C 48.3°F9.1°C 96% 1.1 mph W1.8 kmh W 3.5 mph5.6 kmh 30.42 in1030.1 mb - 0.00 in0.0 mm 0.01 in0.3 mm
02:40 AM 49.4°F9.7°C 48.3°F9.1°C 96% 3.5 mph SW5.6 kmh SW 4.6 mph7.4 kmh 30.42 in1030.1 mb - 0.00 in0.0 mm 0.01 in0.3 mm
02:50 AM 49.2°F9.6°C 48.1°F8.9°C 96% 3.5 mph SW5.6 kmh SW 3.5 mph5.6 kmh 30.43 in1030.5 mb - 0.00 in0.0 mm 0.01 in0.3 mm
03:00 AM 49.1°F9.5°C 48.0°F8.9°C 96% 5.8 mph SW9.3 kmh SW 8.1 mph13.0 kmh 30.43 in1030.5 mb - 0.00 in0.0 mm 0.01 in0.3 mm
03:10 AM 49.0°F9.4°C 47.9°F8.8°C 96% 3.5 mph WSW5.6 kmh WSW 5.8 mph9.3 kmh 30.43 in1030.5 mb - 0.00 in0.0 mm 0.01 in0.3 mm
03:20 AM 48.9°F9.4°C 47.8°F8.8°C 96% 2.3 mph WSW3.7 kmh WSW 3.5 mph5.6 kmh 30.43 in1030.5 mb - 0.00 in0.0 mm 0.01 in0.3 mm
03:30 AM 48.8°F9.3°C 47.8°F8.8°C 96% 1.1 mph WSW1.8 kmh WSW 1.1 mph1.8 kmh 30.43 in1030.5 mb - 0.00 in0.0 mm 0.01 in0.3 mm
03:40 AM 48.9°F9.4°C 47.8°F8.8°C 96% Calm Calm 3.5 mph5.6 kmh 30.43 in1030.5 mb - 0.00 in0.0 mm 0.01 in0.3 mm
03:50 AM 48.8°F9.3°C 47.8°F8.8°C 96% 2.3 mph WNW3.7 kmh WNW 4.6 mph7.4 kmh 30.44 in1030.8 mb - 0.01 in0.3 mm 0.02 in0.5 mm
04:00 AM 48.9°F9.4°C 47.8°F8.8°C 96% 4.6 mph SW7.4 kmh SW 6.9 mph11.1 kmh 30.44 in1030.8 mb - 0.01 in0.3 mm 0.02 in0.5 mm
04:10 AM 48.8°F9.3°C 47.7°F8.7°C 96% 1.1 mph SW1.8 kmh SW 2.3 mph3.7 kmh 30.43 in1030.5 mb - 0.00 in0.0 mm 0.02 in0.5 mm
04:20 AM 48.6°F9.2°C 47.5°F8.6°C 96% 2.3 mph WSW3.7 kmh WSW 4.6 mph7.4 kmh 30.44 in1030.8 mb - 0.00 in0.0 mm 0.02 in0.5 mm
04:30 AM 48.2°F9.0°C 47.1°F8.4°C 96% 1.1 mph SW1.8 kmh SW 2.3 mph3.7 kmh 30.43 in1030.5 mb - 0.00 in0.0 mm 0.02 in0.5 mm
04:40 AM 47.7°F8.7°C 46.7°F8.2°C 96% 2.3 mph SW3.7 kmh SW 3.5 mph5.6 kmh 30.43 in1030.5 mb - 0.00 in0.0 mm 0.02 in0.5 mm
04:50 AM 47.1°F8.4°C 46.1°F7.8°C 96% 2.3 mph SW3.7 kmh SW 3.5 mph5.6 kmh 30.43 in1030.5 mb - 0.00 in0.0 mm 0.02 in0.5 mm
05:00 AM 47.0°F8.3°C 45.9°F7.7°C 96% 2.3 mph SW3.7 kmh SW 2.3 mph3.7 kmh 30.43 in1030.5 mb - 0.00 in0.0 mm 0.02 in0.5 mm
05:10 AM 46.9°F8.3°C 45.8°F7.7°C 96% Calm Calm -- 30.43 in1030.5 mb - 0.00 in0.0 mm 0.02 in0.5 mm
05:20 AM 46.9°F8.3°C 45.8°F7.7°C 96% 4.6 mph NE7.4 kmh NE 6.9 mph11.1 kmh 30.43 in1030.5 mb - 0.00 in0.0 mm 0.02 in0.5 mm
05:30 AM 46.9°F8.3°C 45.8°F7.7°C 96% Calm Calm 3.5 mph5.6 kmh 30.42 in1030.1 mb - 0.00 in0.0 mm 0.02 in0.5 mm
05:40 AM 47.0°F8.3°C 45.9°F7.7°C 96% 1.1 mph NE1.8 kmh NE 3.5 mph5.6 kmh 30.43 in1030.5 mb - 0.00 in0.0 mm 0.02 in0.5 mm
05:50 AM 47.0°F8.3°C 45.9°F7.7°C 96% Calm Calm 1.1 mph1.8 kmh 30.43 in1030.5 mb - 0.00 in0.0 mm 0.02 in0.5 mm
06:00 AM 46.9°F8.3°C 45.8°F7.7°C 96% Calm Calm -- 30.42 in1030.1 mb - 0.00 in0.0 mm 0.02 in0.5 mm
06:10 AM 46.8°F8.2°C 45.7°F7.6°C 96% Calm Calm 1.1 mph1.8 kmh 30.41 in1029.8 mb - 0.00 in0.0 mm 0.02 in0.5 mm
06:20 AM 46.7°F8.2°C 45.6°F7.6°C 96% 2.3 mph NNE3.7 kmh NNE 3.5 mph5.6 kmh 30.42 in1030.1 mb - 0.00 in0.0 mm 0.02 in0.5 mm
06:30 AM 46.6°F8.1°C 45.5°F7.5°C 96% 1.1 mph NNE1.8 kmh NNE 3.5 mph5.6 kmh 30.42 in1030.1 mb - 0.00 in0.0 mm 0.02 in0.5 mm
06:40 AM 46.5°F8.1°C 45.4°F7.4°C 96% 5.8 mph NE9.3 kmh NE 6.9 mph11.1 kmh 30.43 in1030.5 mb - 0.00 in0.0 mm 0.02 in0.5 mm
06:50 AM 46.3°F7.9°C 44.9°F7.2°C 95% 5.8 mph NE9.3 kmh NE 6.9 mph11.1 kmh 30.43 in1030.5 mb - 0.00 in0.0 mm 0.02 in0.5 mm
07:00 AM 46.2°F7.9°C 44.8°F7.1°C 95% 3.5 mph NE5.6 kmh NE 4.6 mph7.4 kmh 30.43 in1030.5 mb - 0.00 in0.0 mm 0.02 in0.5 mm
07:10 AM 46.1°F7.8°C 44.7°F7.1°C 95% 2.3 mph NE3.7 kmh NE 3.5 mph5.6 kmh 30.43 in1030.5 mb - 0.00 in0.0 mm 0.02 in0.5 mm
07:20 AM 46.0°F7.8°C 44.6°F7.0°C 95% 4.6 mph N7.4 kmh N 3.5 mph5.6 kmh 30.43 in1030.5 mb - 0.00 in0.0 mm 0.02 in0.5 mm
07:30 AM 45.5°F7.5°C 44.1°F6.7°C 95% 5.8 mph NE9.3 kmh NE 6.9 mph11.1 kmh 30.44 in1030.8 mb - 0.00 in0.0 mm 0.02 in0.5 mm
07:40 AM 45.3°F7.4°C 44.0°F6.7°C 95% 5.8 mph NE9.3 kmh NE 6.9 mph11.1 kmh 30.44 in1030.8 mb - 0.00 in0.0 mm 0.02 in0.5 mm
07:50 AM 45.1°F7.3°C 43.8°F6.6°C 95% 6.9 mph NE11.1 kmh NE 6.9 mph11.1 kmh 30.44 in1030.8 mb - 0.00 in0.0 mm 0.02 in0.5 mm
08:00 AM 45.1°F7.3°C 43.8°F6.6°C 95% 8.1 mph NE13.0 kmh NE 9.2 mph14.8 kmh 30.44 in1030.8 mb - 0.00 in0.0 mm 0.02 in0.5 mm
08:10 AM 45.1°F7.3°C 43.7°F6.5°C 95% 9.2 mph NE14.8 kmh NE 11.5 mph18.5 kmh 30.44 in1030.8 mb - 0.00 in0.0 mm 0.02 in0.5 mm
08:20 AM 45.0°F7.2°C 43.4°F6.3°C 94% 11.5 mph NE18.5 kmh NE 15.0 mph24.1 kmh 30.45 in1031.2 mb - 0.00 in0.0 mm 0.02 in0.5 mm
08:30 AM 45.0°F7.2°C 43.1°F6.2°C 93% 13.8 mph NE22.2 kmh NE 19.6 mph31.5 kmh 30.45 in1031.2 mb - 0.00 in0.0 mm 0.02 in0.5 mm
08:40 AM 45.4°F7.4°C 43.2°F6.2°C 92% 9.2 mph NE14.8 kmh NE 11.5 mph18.5 kmh 30.45 in1031.2 mb - 0.00 in0.0 mm 0.02 in0.5 mm
08:50 AM 45.5°F7.5°C 42.8°F6.0°C 90% 6.9 mph NE11.1 kmh NE 9.2 mph14.8 kmh 30.45 in1031.2 mb - 0.00 in0.0 mm 0.02 in0.5 mm
09:00 AM 45.2°F7.3°C 42.5°F5.8°C 90% 5.8 mph NE9.3 kmh NE 6.9 mph11.1 kmh 30.45 in1031.2 mb - 0.00 in0.0 mm 0.02 in0.5 mm
09:10 AM 45.0°F7.2°C 42.2°F5.7°C 90% 2.3 mph NE3.7 kmh NE 4.6 mph7.4 kmh 30.46 in1031.5 mb - 0.00 in0.0 mm 0.02 in0.5 mm
09:30 AM 44.4°F6.9°C 41.4°F5.2°C 89% 3.5 mph ENE5.6 kmh ENE 4.6 mph7.4 kmh 30.47 in1031.8 mb - 0.00 in0.0 mm 0.02 in0.5 mm
09:40 AM 44.3°F6.8°C 41.6°F5.3°C 90% 5.8 mph ENE9.3 kmh ENE 6.9 mph11.1 kmh 30.47 in1031.8 mb - 0.00 in0.0 mm 0.02 in0.5 mm
09:50 AM 44.2°F6.8°C 41.5°F5.3°C 90% 2.3 mph ENE3.7 kmh ENE 5.8 mph9.3 kmh 30.47 in1031.8 mb - 0.00 in0.0 mm 0.02 in0.5 mm
10:00 AM 44.1°F6.7°C 41.1°F5.1°C 89% 2.3 mph NE3.7 kmh NE 2.3 mph3.7 kmh 30.48 in1032.2 mb - 0.00 in0.0 mm 0.02 in0.5 mm
10:10 AM 44.2°F6.8°C 41.2°F5.1°C 89% Calm Calm 2.3 mph3.7 kmh 30.48 in1032.2 mb - 0.00 in0.0 mm 0.02 in0.5 mm
10:20 AM 44.2°F6.8°C 41.2°F5.1°C 89% 1.1 mph E1.8 kmh E 2.3 mph3.7 kmh 30.48 in1032.2 mb - 0.00 in0.0 mm 0.02 in0.5 mm
10:30 AM 44.4°F6.9°C 41.3°F5.2°C 89% 2.3 mph ENE3.7 kmh ENE 4.6 mph7.4 kmh 30.48 in1032.2 mb - 0.00 in0.0 mm 0.02 in0.5 mm
10:40 AM 44.7°F7.1°C 41.6°F5.3°C 89% 5.8 mph NE9.3 kmh NE 6.9 mph11.1 kmh 30.48 in1032.2 mb - 0.00 in0.0 mm 0.02 in0.5 mm
10:50 AM 45.3°F7.4°C 42.2°F5.7°C 89% 8.1 mph NE13.0 kmh NE 11.5 mph18.5 kmh 30.48 in1032.2 mb - 0.00 in0.0 mm 0.02 in0.5 mm
11:00 AM 46.3°F7.9°C 42.6°F5.9°C 87% 9.2 mph ENE14.8 kmh ENE 11.5 mph18.5 kmh 30.48 in1032.2 mb - 0.00 in0.0 mm 0.02 in0.5 mm
11:10 AM 47.1°F8.4°C 42.8°F6.0°C 85% 9.2 mph ENE14.8 kmh ENE 12.7 mph20.4 kmh 30.48 in1032.2 mb - 0.00 in0.0 mm 0.02 in0.5 mm
11:20 AM 47.7°F8.7°C 42.8°F6.0°C 83% 9.2 mph NE14.8 kmh NE 12.7 mph20.4 kmh 30.48 in1032.2 mb - 0.00 in0.0 mm 0.02 in0.5 mm
11:30 AM 48.2°F9.0°C 42.9°F6.1°C 82% 12.7 mph ENE20.4 kmh ENE 19.6 mph31.5 kmh 30.48 in1032.2 mb - 0.00 in0.0 mm 0.02 in0.5 mm
11:40 AM 48.1°F8.9°C 42.5°F5.8°C 81% 15.0 mph ENE24.1 kmh ENE 18.4 mph29.6 kmh 30.48 in1032.2 mb - 0.00 in0.0 mm 0.02 in0.5 mm
11:50 AM 48.1°F8.9°C 42.5°F5.8°C 81% 15.0 mph ENE24.1 kmh ENE 19.6 mph31.5 kmh 30.49 in1032.5 mb - 0.00 in0.0 mm 0.02 in0.5 mm
12:00 PM 48.0°F8.9°C 42.1°F5.6°C 80% 13.8 mph NE22.2 kmh NE 19.6 mph31.5 kmh 30.49 in1032.5 mb - 0.00 in0.0 mm 0.02 in0.5 mm
12:10 PM 48.1°F8.9°C 41.9°F5.5°C 79% 13.8 mph NE22.2 kmh NE 18.4 mph29.6 kmh 30.49 in1032.5 mb - 0.00 in0.0 mm 0.02 in0.5 mm
12:20 PM 48.3°F9.1°C 41.8°F5.4°C 78% 13.8 mph NE22.2 kmh NE 16.1 mph25.9 kmh 30.48 in1032.2 mb - 0.00 in0.0 mm 0.02 in0.5 mm
12:30 PM 48.7°F9.3°C 42.5°F5.8°C 79% 11.5 mph NE18.5 kmh NE 13.8 mph22.2 kmh 30.48 in1032.2 mb - 0.00 in0.0 mm 0.02 in0.5 mm
12:40 PM 49.2°F9.6°C 42.6°F5.9°C 78% 11.5 mph ENE18.5 kmh ENE 13.8 mph22.2 kmh 30.47 in1031.8 mb - 0.00 in0.0 mm 0.02 in0.5 mm
12:50 PM 49.3°F9.6°C 42.4°F5.8°C 77% 12.7 mph ENE20.4 kmh ENE 16.1 mph25.9 kmh 30.46 in1031.5 mb - 0.00 in0.0 mm 0.02 in0.5 mm
01:00 PM 49.3°F9.6°C 42.4°F5.8°C 77% 10.4 mph NE16.7 kmh NE 13.8 mph22.2 kmh 30.45 in1031.2 mb - 0.00 in0.0 mm 0.02 in0.5 mm
01:10 PM 49.6°F9.8°C 42.7°F5.9°C 77% 10.4 mph NE16.7 kmh NE 15.0 mph24.1 kmh 30.45 in1031.2 mb - 0.00 in0.0 mm 0.02 in0.5 mm
01:20 PM 49.9°F9.9°C 42.6°F5.9°C 76% 12.7 mph NE20.4 kmh NE 18.4 mph29.6 kmh 30.44 in1030.8 mb - 0.00 in0.0 mm 0.02 in0.5 mm
01:30 PM 50.3°F10.2°C 42.7°F5.9°C 75% 10.4 mph NE16.7 kmh NE 16.1 mph25.9 kmh 30.43 in1030.5 mb - 0.00 in0.0 mm 0.02 in0.5 mm
01:40 PM 50.6°F10.3°C 42.6°F5.9°C 74% 10.4 mph NE16.7 kmh NE 12.7 mph20.4 kmh 30.43 in1030.5 mb - 0.00 in0.0 mm 0.02 in0.5 mm
01:50 PM 50.9°F10.5°C 42.5°F5.8°C 73% 8.1 mph ENE13.0 kmh ENE 10.4 mph16.7 kmh 30.43 in1030.5 mb - 0.00 in0.0 mm 0.02 in0.5 mm
02:00 PM 51.0°F10.6°C 43.0°F6.1°C 74% 10.4 mph NE16.7 kmh NE 16.1 mph25.9 kmh 30.44 in1030.8 mb - 0.00 in0.0 mm 0.02 in0.5 mm
02:10 PM 51.2°F10.7°C 42.5°F5.8°C 72% 10.4 mph E16.7 kmh E 11.5 mph18.5 kmh 30.43 in1030.5 mb - 0.00 in0.0 mm 0.02 in0.5 mm
02:20 PM 51.3°F10.7°C 42.9°F6.1°C 73% 6.9 mph ENE11.1 kmh ENE 8.1 mph13.0 kmh 30.43 in1030.5 mb - 0.00 in0.0 mm 0.02 in0.5 mm
02:30 PM 51.3°F10.7°C 42.9°F6.1°C 73% 6.9 mph ENE11.1 kmh ENE 8.1 mph13.0 kmh 30.43 in1030.5 mb - 0.00 in0.0 mm 0.02 in0.5 mm
02:40 PM 51.3°F10.7°C 42.9°F6.1°C 73% 6.9 mph ENE11.1 kmh ENE 8.1 mph13.0 kmh 30.43 in1030.5 mb - 0.00 in0.0 mm 0.02 in0.5 mm
02:50 PM 51.3°F10.7°C 42.9°F6.1°C 73% 6.9 mph ENE11.1 kmh ENE 8.1 mph13.0 kmh 30.43 in1030.5 mb - 0.00 in0.0 mm 0.02 in0.5 mm
03:00 PM 51.3°F10.7°C 42.9°F6.1°C 73% 6.9 mph ENE11.1 kmh ENE 8.1 mph13.0 kmh 30.43 in1030.5 mb - 0.00 in0.0 mm 0.02 in0.5 mm
03:10 PM 51.3°F10.7°C 42.9°F6.1°C 73% 6.9 mph ENE11.1 kmh ENE 8.1 mph13.0 kmh 30.43 in1030.5 mb - 0.00 in0.0 mm 0.02 in0.5 mm
03:20 PM 51.3°F10.7°C 42.9°F6.1°C 73% 6.9 mph ENE11.1 kmh ENE 8.1 mph13.0 kmh 30.43 in1030.5 mb - 0.00 in0.0 mm 0.02 in0.5 mm
03:30 PM 51.3°F10.7°C 42.9°F6.1°C 73% 6.9 mph ENE11.1 kmh ENE 8.1 mph13.0 kmh 30.43 in1030.5 mb - 0.00 in0.0 mm 0.02 in0.5 mm
03:40 PM 52.3°F11.3°C 42.8°F6.0°C 70% 9.2 mph NE14.8 kmh NE 13.8 mph22.2 kmh 30.40 in1029.5 mb - 0.00 in0.0 mm 0.02 in0.5 mm
03:50 PM 52.2°F11.2°C 42.7°F5.9°C 70% 10.4 mph NE16.7 kmh NE 11.5 mph18.5 kmh 30.40 in1029.5 mb - 0.00 in0.0 mm 0.02 in0.5 mm
04:00 PM 52.0°F11.1°C 42.5°F5.8°C 70% 11.5 mph NE18.5 kmh NE 12.7 mph20.4 kmh 30.40 in1029.5 mb - 0.00 in0.0 mm 0.02 in0.5 mm
04:10 PM 52.0°F11.1°C 42.5°F5.8°C 70% 11.5 mph NE18.5 kmh NE 15.0 mph24.1 kmh 30.40 in1029.5 mb - 0.00 in0.0 mm 0.02 in0.5 mm
04:20 PM 52.1°F11.2°C 42.9°F6.1°C 71% 9.2 mph NE14.8 kmh NE 12.7 mph20.4 kmh 30.41 in1029.8 mb - 0.00 in0.0 mm 0.02 in0.5 mm
04:30 PM 51.9°F11.1°C 42.8°F6.0°C 71% 9.2 mph NE14.8 kmh NE 11.5 mph18.5 kmh 30.41 in1029.8 mb - 0.00 in0.0 mm 0.02 in0.5 mm
04:40 PM 51.9°F11.1°C 42.8°F6.0°C 71% 9.2 mph E14.8 kmh E 11.5 mph18.5 kmh 30.40 in1029.5 mb - 0.00 in0.0 mm 0.02 in0.5 mm
04:50 PM 51.7°F10.9°C 42.6°F5.9°C 71% 9.2 mph ENE14.8 kmh ENE 11.5 mph18.5 kmh 30.40 in1029.5 mb - 0.00 in0.0 mm 0.02 in0.5 mm
05:00 PM 51.4°F10.8°C 42.3°F5.7°C 71% 8.1 mph NE13.0 kmh NE 11.5 mph18.5 kmh 30.40 in1029.5 mb - 0.00 in0.0 mm 0.02 in0.5 mm
05:10 PM 51.4°F10.8°C 42.6°F5.9°C 72% 12.7 mph NE20.4 kmh NE 15.0 mph24.1 kmh 30.41 in1029.8 mb - 0.00 in0.0 mm 0.02 in0.5 mm
05:20 PM 51.1°F10.6°C 42.4°F5.8°C 72% 11.5 mph NE18.5 kmh NE 13.8 mph22.2 kmh 30.41 in1029.8 mb - 0.00 in0.0 mm 0.02 in0.5 mm
05:30 PM 50.8°F10.4°C 41.7°F5.4°C 71% 11.5 mph NE18.5 kmh NE 13.8 mph22.2 kmh 30.41 in1029.8 mb - 0.00 in0.0 mm 0.02 in0.5 mm
05:40 PM 50.5°F10.3°C 41.9°F5.5°C 72% 9.2 mph NE14.8 kmh NE 12.7 mph20.4 kmh 30.40 in1029.5 mb - 0.00 in0.0 mm 0.02 in0.5 mm
05:50 PM 50.2°F10.1°C 41.5°F5.3°C 72% 10.4 mph NE16.7 kmh NE 12.7 mph20.4 kmh 30.39 in1029.1 mb - 0.00 in0.0 mm 0.02 in0.5 mm
06:00 PM 50.1°F10.1°C 41.8°F5.4°C 73% 10.4 mph NE16.7 kmh NE 11.5 mph18.5 kmh 30.39 in1029.1 mb - 0.00 in0.0 mm 0.02 in0.5 mm
06:10 PM 49.9°F9.9°C 41.6°F5.3°C 73% 10.4 mph NE16.7 kmh NE 11.5 mph18.5 kmh 30.40 in1029.5 mb - 0.00 in0.0 mm 0.02 in0.5 mm
06:20 PM 49.5°F9.7°C 41.6°F5.3°C 74% 6.9 mph NE11.1 kmh NE 8.1 mph13.0 kmh 30.40 in1029.5 mb - 0.00 in0.0 mm 0.02 in0.5 mm
06:30 PM 49.0°F9.4°C 41.8°F5.4°C 76% 5.8 mph NE9.3 kmh NE 6.9 mph11.1 kmh 30.40 in1029.5 mb - 0.00 in0.0 mm 0.02 in0.5 mm
06:40 PM 48.6°F9.2°C 41.4°F5.2°C 76% 4.6 mph NE7.4 kmh NE 5.8 mph9.3 kmh 30.40 in1029.5 mb - 0.00 in0.0 mm 0.02 in0.5 mm
06:50 PM 48.2°F9.0°C 41.3°F5.2°C 77% 3.5 mph NE5.6 kmh NE 4.6 mph7.4 kmh 30.41 in1029.8 mb - 0.00 in0.0 mm 0.02 in0.5 mm
07:00 PM 47.4°F8.6°C 41.2°F5.1°C 79% 4.6 mph NE7.4 kmh NE 5.8 mph9.3 kmh 30.41 in1029.8 mb - 0.00 in0.0 mm 0.02 in0.5 mm
07:10 PM 47.1°F8.4°C 41.2°F5.1°C 80% 3.5 mph NE5.6 kmh NE 4.6 mph7.4 kmh 30.41 in1029.8 mb - 0.00 in0.0 mm 0.02 in0.5 mm
07:20 PM 46.8°F8.2°C 41.0°F5.0°C 80% 3.5 mph NE5.6 kmh NE 4.6 mph7.4 kmh 30.41 in1029.8 mb - 0.00 in0.0 mm 0.02 in0.5 mm
07:30 PM 46.4°F8.0°C 40.8°F4.9°C 81% 4.6 mph NE7.4 kmh NE 5.8 mph9.3 kmh 30.41 in1029.8 mb - 0.00 in0.0 mm 0.02 in0.5 mm
07:40 PM 45.9°F7.7°C 40.7°F4.8°C 82% 2.3 mph NE3.7 kmh NE 4.6 mph7.4 kmh 30.41 in1029.8 mb - 0.00 in0.0 mm 0.02 in0.5 mm
07:50 PM 45.6°F7.6°C 40.4°F4.7°C 82% Calm Calm 1.1 mph1.8 kmh 30.41 in1029.8 mb - 0.00 in0.0 mm 0.02 in0.5 mm
08:00 PM 45.1°F7.3°C 40.2°F4.6°C 83% Calm Calm 2.3 mph3.7 kmh 30.41 in1029.8 mb - 0.00 in0.0 mm 0.02 in0.5 mm
08:10 PM 44.7°F7.1°C 39.9°F4.4°C 83% 1.1 mph NE1.8 kmh NE 2.3 mph3.7 kmh 30.41 in1029.8 mb - 0.00 in0.0 mm 0.02 in0.5 mm
08:20 PM 44.4°F6.9°C 39.9°F4.4°C 84% Calm Calm -- 30.41 in1029.8 mb - 0.00 in0.0 mm 0.02 in0.5 mm
08:30 PM 44.0°F6.7°C 39.5°F4.2°C 84% Calm Calm -- 30.41 in1029.8 mb - 0.00 in0.0 mm 0.02 in0.5 mm
08:40 PM 43.5°F6.4°C 39.3°F4.1°C 85% Calm Calm 1.1 mph1.8 kmh 30.41 in1029.8 mb - 0.00 in0.0 mm 0.02 in0.5 mm
08:50 PM 43.6°F6.4°C 39.7°F4.3°C 86% Calm Calm -- 30.41 in1029.8 mb - 0.00 in0.0 mm 0.02 in0.5 mm
09:00 PM 43.5°F6.4°C 39.6°F4.2°C 86% Calm Calm -- 30.41 in1029.8 mb - 0.00 in0.0 mm 0.02 in0.5 mm
09:10 PM 43.4°F6.3°C 39.5°F4.2°C 86% Calm Calm -- 30.41 in1029.8 mb - 0.00 in0.0 mm 0.02 in0.5 mm
09:20 PM 43.2°F6.2°C 39.3°F4.1°C 86% Calm Calm -- 30.41 in1029.8 mb - 0.00 in0.0 mm 0.02 in0.5 mm
09:30 PM 43.0°F6.1°C 39.1°F3.9°C 86% Calm Calm 1.1 mph1.8 kmh 30.41 in1029.8 mb - 0.00 in0.0 mm 0.02 in0.5 mm
09:40 PM 42.7°F5.9°C 38.8°F3.8°C 86% Calm Calm 1.1 mph1.8 kmh 30.41 in1029.8 mb - 0.00 in0.0 mm 0.02 in0.5 mm
09:50 PM 42.4°F5.8°C 38.5°F3.6°C 86% Calm Calm -- 30.41 in1029.8 mb - 0.00 in0.0 mm 0.02 in0.5 mm
10:00 PM 42.0°F5.6°C 38.1°F3.4°C 86% Calm Calm -- 30.42 in1030.1 mb - 0.00 in0.0 mm 0.02 in0.5 mm
10:10 PM 41.7°F5.4°C 38.1°F3.4°C 87% Calm Calm 1.1 mph1.8 kmh 30.42 in1030.1 mb - 0.00 in0.0 mm 0.02 in0.5 mm
10:20 PM 41.4°F5.2°C 37.8°F3.2°C 87% Calm Calm -- 30.42 in1030.1 mb - 0.00 in0.0 mm 0.02 in0.5 mm
10:30 PM 41.0°F5.0°C 37.8°F3.2°C 88% Calm Calm -- 30.42 in1030.1 mb - 0.00 in0.0 mm 0.02 in0.5 mm
10:40 PM 41.0°F5.0°C 38.0°F3.3°C 89% Calm Calm -- 30.42 in1030.1 mb - 0.00 in0.0 mm 0.02 in0.5 mm
10:50 PM 40.9°F4.9°C 37.9°F3.3°C 89% Calm Calm 1.1 mph1.8 kmh 30.42 in1030.1 mb - 0.00 in0.0 mm 0.02 in0.5 mm
11:00 PM 40.6°F4.8°C 37.6°F3.1°C 89% 1.1 mph E1.8 kmh E 1.1 mph1.8 kmh 30.42 in1030.1 mb - 0.00 in0.0 mm 0.02 in0.5 mm
11:10 PM 40.3°F4.6°C 37.3°F2.9°C 89% Calm Calm 1.1 mph1.8 kmh 30.42 in1030.1 mb - 0.00 in0.0 mm 0.02 in0.5 mm
11:20 PM 40.0°F4.4°C 37.0°F2.8°C 89% 1.1 mph ENE1.8 kmh ENE 3.5 mph5.6 kmh 30.43 in1030.5 mb - 0.00 in0.0 mm 0.02 in0.5 mm
11:30 PM 39.7°F4.3°C 36.7°F2.6°C 89% 1.1 mph NE1.8 kmh NE 2.3 mph3.7 kmh 30.43 in1030.5 mb - 0.00 in0.0 mm 0.02 in0.5 mm
11:40 PM 39.5°F4.2°C 36.5°F2.5°C 89% 1.1 mph NE1.8 kmh NE 2.3 mph3.7 kmh 30.43 in1030.5 mb - 0.00 in0.0 mm 0.02 in0.5 mm
11:50 PM 39.3°F4.1°C 36.3°F2.4°C 89% 1.1 mph NE1.8 kmh NE 2.3 mph3.7 kmh 30.43 in1030.5 mb - 0.00 in0.0 mm 0.02 in0.5 mm